This is the latest recevied weather packets stored in our database for station/object SP5QWJ. If no packets are shown the sender has not sent any weather packets the latest 1 day(s).
| Time | Temp. | Humidity | Pressure | Rain* | Wind** | Luminosity | Snow |
|---|---|---|---|---|---|---|---|
| 1778077819 | 23.89° C | 50% | 1004.4 hPa | - | - | - | - |
| 1778076908 | 24.44° C | 49% | 1004.4 hPa | - | - | - | - |
| 1778074173 | 25.56° C | 47% | 1004.3 hPa | - | - | - | - |
| 1778073262 | 25.56° C | 49% | 1004.1 hPa | - | - | - | - |
| 1778063235 | 25.56° C | 45% | 1004.3 hPa | - | - | - | - |
| 1778060500 | 28.33° C | 41% | 1004.3 hPa | - | - | - | - |
| 1778056856 | 25.56° C | 48% | 1004.3 hPa | - | - | - | - |
| 1778055944 | 24.44° C | 51% | 1004.3 hPa | - | - | - | - |
| 1778055033 | 23.89° C | 52% | 1004.1 hPa | - | - | - | - |
| 1778054121 | 23.33° C | 57% | 1004.1 hPa | - | - | - | - |
| 1778052299 | 22.78° C | 65% | 1004.3 hPa | - | - | - | - |
| 1778051387 | 21.67° C | 71% | 1004.3 hPa | - | - | - | - |
| 1778050475 | 20.56° C | 77% | 1004.2 hPa | - | - | - | - |
| 1778047740 | 18.33° C | 99% | 1004.6 hPa | - | - | - | - |
| 1778046828 | 16.67° C | 100% | 1004.6 hPa | - | - | - | - |
| 1778045917 | 15.56° C | 100% | 1004.7 hPa | - | - | - | - |
| 1778043179 | 13.89° C | 100% | 1004.6 hPa | - | - | - | - |
| 1778042266 | 12.78° C | 100% | 1004.5 hPa | - | - | - | - |
| 1778041355 | 12.22° C | 100% | 1004.6 hPa | - | - | - | - |
| 1778039531 | 12.22° C | 100% | 1004.8 hPa | - | - | - | - |
| 1778037708 | 12.22° C | 100% | 1004.7 hPa | - | - | - | - |
| 1778035886 | 11.67° C | 100% | 1004.8 hPa | - | - | - | - |
| 1778034975 | 12.22° C | 100% | 1004.9 hPa | - | - | - | - |
| 1778034063 | 12.22° C | 100% | 1005 hPa | - | - | - | - |
| 1778033150 | 12.78° C | 100% | 1005.2 hPa | - | - | - | - |
* Rain since midnight (hover to see other rain measurements)
** Current wind speed in m/s (hover to see current wind gust speed)